Latest Weather Observations for Gladstone

IDQ60801

Issued at 4:32 am EST Tuesday 24 January 2017 (issued every 30 minutes, with the page automatically refreshed every 10 minutes)

About weather observations | Map of weather stations | Latest weather observations for QLD | Other Formats
Station Details ID: 039123 Name: GLADSTONE RADAR Lat: -23.86 Lon: 151.26 Height: 74.5 m
Data from the previous 72 hours. | See also: Recent months at Gladstone
Date/Time
EST
Temp
°C
App
Temp
°C
Dew
Point
°C
Rel
Hum
%
Delta-T
°C
Wind Press
QNH
hPa
Press
MSL
hPa
Rain since
9am
mm
Dir  Spd
km/h
Gust
km/h
Spd
kts
Gust
kts
24/04:30am 23.5 23.4 17.9 71 3.5 SSE 15 20 8 11 1014.6 1014.2 -
24/04:00am 23.5 23.0 17.7 70 3.6 SE 17 22 9 12 1014.5 1014.1 -
24/03:30am 23.6 23.4 17.6 69 3.7 SSE 15 20 8 11 1014.4 1014.0 -
24/03:00am 23.8 23.6 17.5 68 3.9 SSE 15 22 8 12 1014.4 1014.0 -
24/02:30am 23.8 23.7 17.8 69 3.8 SE 15 20 8 11 1014.6 1014.2 -
24/02:00am 23.8 23.8 18.2 71 3.5 SE 15 22 8 12 1014.7 1014.3 -
24/01:30am 23.8 24.7 18.4 72 3.4 SE 11 17 6 9 1014.7 1014.3 -
24/01:00am 24.2 25.1 18.4 70 3.7 SE 11 17 6 9 1014.8 1014.4 -
24/12:30am 25.2 23.7 17.7 63 4.7 E 22 30 12 16 1014.8 1014.4 -
24/12:00am 25.5 23.0 17.2 60 5.2 E 26 35 14 19 1014.9 1014.5 -
 
Date/Time
EST
Temp
°C
App
Temp
°C
Dew
Point
°C
Rel
Hum
%
Delta-T
°C
Wind Press
QNH
hPa
Press
MSL
hPa
Rain since
9am
mm
Dir  Spd
km/h
Gust
km/h
Spd
kts
Gust
kts
23/11:30pm 25.7 24.1 18.4 64 4.6 E 24 32 13 17 1015.3 1014.9 -
23/11:00pm 25.8 23.0 17.2 59 5.4 E 28 39 15 21 1015.2 1014.8 -
23/10:30pm 25.9 22.9 17.8 61 5.1 E 30 37 16 20 1015.4 1015.0 -
23/10:00pm 26.0 23.8 18.7 64 4.7 E 28 41 15 22 1015.3 1014.9 -
23/09:30pm 26.0 24.4 19.2 66 4.4 ENE 26 35 14 19 1015.2 1014.8 -
23/09:00pm 26.1 24.4 19.7 68 4.2 E 28 39 15 21 1015.2 1014.8 -
23/08:30pm 26.2 25.0 20.1 69 4.0 E 26 35 14 19 1015.2 1014.8 -
23/08:00pm 26.2 25.5 20.3 70 3.9 ENE 24 35 13 19 1015.0 1014.6 -
23/07:30pm 26.1 25.1 20.4 71 3.7 ENE 26 37 14 20 1014.7 1014.3 -
23/07:00pm 26.0 24.8 20.1 70 3.8 E 26 41 14 22 1014.4 1014.0 -
23/06:30pm 26.3 25.4 19.9 68 4.2 ENE 24 33 13 18 1014.1 1013.7 -
23/06:00pm 26.9 25.8 19.5 64 4.8 ENE 24 35 13 19 1013.6 1013.1 -
23/05:30pm 27.2 25.8 18.8 60 5.4 ENE 24 33 13 18 1013.2 1012.7 -
23/05:00pm 27.9 26.5 19.7 61 5.4 E 26 39 14 21 1012.8 1012.3 -
23/04:30pm 28.9 28.0 19.8 58 6.0 ENE 24 35 13 19 1012.6 1012.1 -
23/04:00pm 29.1 27.5 20.0 58 6.0 ENE 28 39 15 21 1012.5 1012.0 -
23/03:30pm 30.0 28.5 20.3 56 6.4 ENE 28 41 15 22 1012.5 1012.0 -
23/03:00pm 29.9 28.0 20.2 56 6.4 ENE 30 39 16 21 1012.7 1012.2 -
23/02:30pm 30.6 28.9 19.9 52 7.1 ENE 28 39 15 21 1013.0 1012.5 -
23/02:00pm 30.1 29.1 20.4 56 6.4 E 26 39 14 21 1013.2 1012.7 -
23/01:30pm 29.3 27.5 19.6 56 6.3 ENE 28 39 15 21 1013.6 1013.1 -
23/01:00pm 28.8 25.5 18.0 52 6.9 ENE 32 39 17 21 1013.7 1013.2 -
23/12:30pm 30.2 28.8 18.9 50 7.3 ENE 24 35 13 19 1014.0 1013.6 -
23/12:00pm 31.3 31.0 20.3 52 7.3 ENE 22 35 12 19 1014.2 1013.8 -
23/11:30am 30.7 29.5 20.0 52 7.1 ENE 26 35 14 19 1014.7 1014.3 -
23/11:00am 30.5 29.2 19.8 52 7.0 E 26 35 14 19 1014.9 1014.5 -
23/10:30am 30.7 30.4 20.3 53 6.9 E 22 41 12 22 1015.1 1014.7 -
23/10:00am 29.1 27.7 18.8 53 6.7 E 24 39 13 21 1015.4 1015.0 -
23/09:30am 28.2 26.5 18.9 57 6.0 ESE 26 37 14 20 1015.5 1015.1 -
23/09:00am 28.2 27.6 18.9 57 6.0 ESE 20 32 11 17 1015.5 1015.1 -
23/08:30am 27.4 26.3 18.7 59 5.6 ESE 22 33 12 18 1015.5 1015.1 -
23/08:00am 27.0 28.0 20.3 66 4.4 SE 15 28 8 15 1015.3 1014.9 -
23/07:30am 24.7 25.3 18.6 69 3.9 SE 13 24 7 13 1015.2 1014.8 -
23/07:00am 24.4 24.5 18.3 69 3.9 SSE 15 24 8 13 1014.8 1014.4 -
23/06:30am 24.1 23.8 18.3 70 3.7 SE 17 24 9 13 1014.4 1014.0 -
23/06:00am 23.9 24.5 18.5 72 3.4 SSE 13 24 7 13 1014.1 1013.7 -
23/05:30am 24.0 23.8 18.6 72 3.4 SE 17 24 9 13 1013.8 1013.3 -
23/05:00am 23.9 24.5 18.5 72 3.4 SSE 13 20 7 11 1013.5 1013.0 -
23/04:30am 24.0 23.8 18.6 72 3.4 SSE 17 24 9 13 1013.3 1012.8 -
23/04:00am 24.1 24.4 18.7 72 3.4 SE 15 26 8 14 1012.9 1012.4 -
23/03:30am 24.2 24.5 18.8 72 3.4 SE 15 22 8 12 1012.8 1012.3 -
23/03:00am 24.3 24.3 18.9 72 3.4 SE 17 22 9 12 1012.8 1012.3 -
23/02:30am 24.3 24.6 18.7 71 3.6 SE 15 20 8 11 1012.9 1012.4 -
23/02:00am 24.5 24.5 18.9 71 3.6 SE 17 26 9 14 1013.1 1012.6 -
23/01:30am 24.6 25.0 19.0 71 3.6 ESE 15 26 8 14 1013.3 1012.8 -
23/01:00am 24.8 24.9 19.2 71 3.6 ESE 17 32 9 17 1013.4 1012.9 -
23/12:30am 25.0 24.5 19.1 70 3.8 ESE 20 32 11 17 1013.7 1013.2 -
23/12:00am 25.2 24.4 19.3 70 3.8 ESE 22 35 12 19 1013.9 1013.4 -
 
Date/Time
EST
Temp
°C
App
Temp
°C
Dew
Point
°C
Rel
Hum
%
Delta-T
°C
Wind Press
QNH
hPa
Press
MSL
hPa
Rain since
9am
mm
Dir  Spd
km/h
Gust
km/h
Spd
kts
Gust
kts
22/11:30pm 25.3 23.4 19.4 70 3.8 ESE 28 41 15 22 1014.2 1013.8 -
22/11:00pm 25.4 23.2 19.5 70 3.8 ESE 30 46 16 25 1014.2 1013.8 -
22/10:46pm 25.4 23.7 19.8 71 3.6 ESE 28 46 15 25 1014.2 1013.8 -
22/10:30pm 25.5 23.9 20.1 72 3.5 ESE 28 43 15 23 1014.2 1013.8 -
22/10:00pm 25.6 24.1 20.2 72 3.5 ESE 28 43 15 23 1014.3 1013.9 -
22/09:30pm 25.6 25.7 20.4 73 3.4 ESE 20 33 11 18 1014.2 1013.8 -
22/09:00pm 25.9 23.6 20.2 71 3.7 ESE 32 46 17 25 1013.9 1013.4 -
22/08:36pm 25.9 24.4 20.2 71 3.7 ESE 28 50 15 27 1013.7 1013.2 -
22/08:30pm 25.8 25.0 20.8 74 3.3 ESE 26 41 14 22 1013.8 1013.3 -
22/08:00pm 25.8 24.7 21.0 75 3.2 ESE 28 41 15 22 1013.7 1013.2 -
22/07:30pm 26.0 25.2 20.8 73 3.4 ESE 26 39 14 21 1013.6 1013.1 -
22/07:00pm 26.1 25.3 20.9 73 3.4 ESE 26 35 14 19 1013.3 1012.8 -
22/06:30pm 25.9 26.4 20.9 74 3.3 ESE 19 28 10 15 1013.2 1012.7 -
22/06:00pm 26.0 25.4 20.6 72 3.6 ESE 24 39 13 21 1012.9 1012.4 -
22/05:30pm 26.1 25.7 20.9 73 3.4 ESE 24 39 13 21 1012.6 1012.1 -
22/05:00pm 26.2 25.1 21.0 73 3.4 ESE 28 39 15 21 1012.5 1012.0 -
22/04:30pm 26.1 26.1 21.7 77 2.9 ESE 24 39 13 21 1012.2 1011.7 -
22/04:00pm 25.9 26.1 22.0 79 2.6 ESE 24 37 13 20 1012.5 1012.0 -
22/03:30pm 25.7 24.9 22.4 82 2.2 ESE 30 41 16 22 1012.7 1012.2 -
22/03:00pm 25.5 24.5 22.6 84 2.0 ESE 32 44 17 24 1012.9 1012.4 -
22/02:30pm 24.5 25.5 22.9 91 1.1 ESE 22 39 12 21 1013.1 1012.6 -
22/02:00pm 25.2 25.5 22.9 87 1.6 ESE 26 43 14 23 1013.3 1012.8 -
22/01:30pm 25.5 25.6 23.2 87 1.6 ESE 28 44 15 24 1013.4 1012.9 -
22/01:00pm 25.9 25.2 23.2 85 1.8 ESE 32 44 17 24 1013.4 1012.9 -
22/12:31pm 24.7 25.1 23.8 95 0.6 ESE 28 46 15 25 1013.9 1013.4 -
22/12:30pm 24.5 24.4 23.6 95 0.6 ESE 30 46 16 25 1013.9 1013.4 -
22/12:00pm 26.0 25.7 23.3 85 1.8 ESE 30 41 16 22 1014.0 1013.6 -
22/11:30am 25.9 25.9 23.0 84 2.0 ESE 28 43 15 23 1014.3 1013.9 -
22/11:00am 25.9 25.3 22.6 82 2.2 ESE 30 46 16 25 1014.3 1013.9 -
22/10:38am 26.1 26.2 23.2 84 2.0 ESE 28 46 15 25 1014.4 1014.0 -
22/10:30am 26.1 25.3 23.4 85 1.8 ESE 33 50 18 27 1014.3 1013.9 -
22/10:00am 26.3 26.1 22.8 81 2.4 ESE 28 43 15 23 1014.2 1013.8 -
22/09:30am 26.0 25.9 22.9 83 2.1 ESE 28 43 15 23 1014.1 1013.7 -
22/09:00am 25.6 26.9 22.7 84 2.0 ESE 20 33 11 18 1014.0 1013.6 -
22/08:30am 25.3 26.2 22.6 85 1.8 ESE 22 39 12 21 1013.9 1013.4 -
22/08:00am 25.2 26.0 23.1 88 1.4 ESE 24 39 13 21 1013.4 1012.9 -
22/07:30am 25.0 26.6 23.2 90 1.2 ESE 20 39 11 21 1013.1 1012.6 -
22/07:00am 24.8 26.4 23.2 91 1.1 SE 20 32 11 17 1012.9 1012.4 -
22/06:30am 24.5 26.4 23.8 96 0.5 ESE 20 35 11 19 1012.6 1012.1 -
22/06:00am 24.2 25.4 23.9 98 0.2 ESE 24 39 13 21 1012.2 1011.7 -
22/05:30am 24.3 25.6 24.0 98 0.2 ESE 24 35 13 19 1011.7 1011.2 -
22/05:00am 24.7 24.9 24.7 100 0.0 ESE 32 41 17 22 1010.9 1010.4 -
22/04:30am 24.6 25.5 23.9 96 0.5 ESE 26 43 14 23 1010.8 1010.3 -
22/04:15am 25.2 26.1 23.4 90 1.2 ESE 24 46 13 25 1010.7 1010.2 -
22/04:00am 26.2 29.4 23.7 86 1.7 SE 13 24 7 13 1010.5 1010.0 -
22/03:30am 27.3 31.1 25.3 89 1.4 ENE 15 24 8 13 1010.3 1009.8 -
22/03:00am 27.1 31.0 24.9 88 1.5 ENE 13 19 7 10 1010.0 1009.5 -
22/02:30am 27.2 31.6 25.0 88 1.5 ENE 11 17 6 9 1010.0 1009.5 -
22/02:00am 27.2 31.2 25.0 88 1.5 ENE 13 19 7 10 1010.0 1009.5 -
22/01:30am 27.0 31.2 24.8 88 1.5 NE 11 15 6 8 1010.1 1009.6 -
22/01:00am 27.3 31.9 24.7 86 1.8 N 9 13 5 7 1010.0 1009.5 -
22/12:30am 27.4 33.3 24.7 85 1.9 N 2 7 1 4 1010.0 1009.5 -
22/12:00am 27.4 32.5 24.7 85 1.9 N 6 11 3 6 1009.7 1009.2 -
 
Date/Time
EST
Temp
°C
App
Temp
°C
Dew
Point
°C
Rel
Hum
%
Delta-T
°C
Wind Press
QNH
hPa
Press
MSL
hPa
Rain since
9am
mm
Dir  Spd
km/h
Gust
km/h
Spd
kts
Gust
kts
21/11:30pm 27.5 32.4 24.6 84 2.0 N 7 13 4 7 1009.9 1009.4 -
21/11:00pm 27.5 32.4 24.6 84 2.0 N 7 15 4 8 1009.9 1009.4 -
21/10:30pm 27.5 32.4 24.4 83 2.2 N 6 9 3 5 1010.1 1009.6 -
21/10:00pm 27.6 32.2 24.2 82 2.4 N 7 13 4 7 1009.9 1009.4 -
21/09:30pm 27.7 31.9 24.1 81 2.5 N 9 15 5 8 1009.7 1009.2 -
21/09:00pm 27.8 31.8 23.8 79 2.8 NNW 9 15 5 8 1009.3 1008.8 -
21/08:30pm 27.9 32.6 24.3 81 2.5 N 7 13 4 7 1009.1 1008.6 -
21/08:00pm 28.0 32.8 24.4 81 2.5 N 7 15 4 8 1008.9 1008.4 -
21/07:30pm 28.0 32.1 24.0 79 2.8 N 9 17 5 9 1008.4 1007.9 -
21/07:00pm 28.1 31.4 23.9 78 2.9 N 13 20 7 11 1008.0 1007.5 -
21/06:30pm 28.6 32.1 23.5 74 3.5 NNE 11 20 6 11 1007.5 1007.0 -
21/06:00pm 29.1 32.2 23.5 72 3.9 N 13 24 7 13 1006.9 1006.4 -
21/05:30pm 29.9 33.3 23.3 67 4.5 N 11 19 6 10 1006.3 1005.8 -
21/05:00pm 30.6 33.9 23.8 67 4.7 NNE 13 20 7 11 1006.0 1005.5 -
21/04:30pm 30.5 33.4 23.9 68 4.6 NNE 15 22 8 12 1005.9 1005.4 -
21/04:00pm 30.6 33.4 24.3 69 4.4 NNE 17 28 9 15 1006.2 1005.7 -
21/03:30pm 30.4 34.0 24.3 70 4.3 NE 13 26 7 14 1006.3 1005.8 -
21/03:00pm 30.2 32.2 23.6 67 4.6 NNE 19 30 10 16 1006.8 1006.3 -
21/02:30pm 30.3 32.3 23.0 65 5.0 NE 17 26 9 14 1007.0 1006.5 -
21/02:00pm 31.1 33.4 23.5 64 5.3 NE 17 26 9 14 1007.2 1006.7 -
21/01:30pm 32.9 35.6 23.5 57 6.5 NE 15 24 8 13 1007.4 1006.9 -
21/01:00pm 34.6 37.0 23.0 51 8.1 NE 15 24 8 13 1007.6 1007.1 -
21/12:30pm 34.0 36.2 21.8 49 8.3 NE 13 22 7 12 1008.0 1007.5 -
21/12:00pm 35.4 37.7 21.3 44 9.6 NE 11 19 6 10 1008.3 1007.8 -
21/11:30am 33.2 34.0 17.4 39 10.1 NW 9 19 5 10 1008.6 1008.1 -
21/11:00am 32.4 32.7 17.1 40 9.8 WNW 11 19 6 10 1009.0 1008.5 -
21/10:30am 32.1 33.2 17.2 41 9.5 NW 7 17 4 9 1009.4 1008.9 -
21/10:00am 30.9 33.1 19.3 50 7.6 W 6 11 3 6 1009.6 1009.1 -
21/09:30am 30.1 31.6 18.8 50 7.3 NW 9 19 5 10 1009.5 1009.0 -
21/09:00am 29.9 32.0 19.0 52 7.1 W 6 11 3 6 1009.5 1009.0 -
21/08:30am 29.2 31.6 20.1 58 6.0 WSW 7 11 4 6 1009.7 1009.2 -
21/08:00am 27.7 30.3 20.0 63 5.1 WSW 6 13 3 7 1009.5 1009.0 -
21/07:30am 25.9 29.2 20.0 70 3.8 WSW 2 9 1 5 1009.4 1008.9 -
21/07:00am 25.2 27.8 20.5 75 3.1 WSW 7 11 4 6 1009.6 1009.1 -
21/06:30am 24.3 28.0 20.8 81 2.3 W 2 9 1 5 1009.3 1008.8 -
21/06:00am 24.0 26.9 20.7 82 2.2 W 6 7 3 4 1008.9 1008.4 -
21/05:30am 24.2 27.0 20.9 82 2.2 WNW 7 13 4 7 1008.6 1008.1 -
21/05:00am 24.5 27.5 21.2 82 2.2 WNW 7 13 4 7 1007.9 1007.4 -

Other Formats:

Comma delimited format used in spreadsheet applications
http://www.bom.gov.au/fwo/IDQ60801/IDQ60801.94380.axf

JavaScript Object Notation format (JSON) in row-major order
http://www.bom.gov.au/fwo/IDQ60801/IDQ60801.94380.json